JQ1YUX-13 Tokyo Ota-ku JP current weather conditions

sailwx.info

Wind at 4 knots gusting 5

Air temperature 12.2° C
Dewpoint 1.5° C

Last reported at 2015-Mar-02 03:32 UTC.
Time now 2015-Mar-02 05:05 UTC

Location: N 35°35' E 139°40'.
View on Google Maps.

See reports from other nearby stations

  
Tides and Currents Weather Stations Pressure Air Temp Water Temp Dewpoint Dewpoint Depression Visibility Wind Speed Wind Dir Waves Ship Positions
date/time (UTC)wind fromknots sea level pressurealtimeterstation pressurevisibilityair tempwater tempwave heightnotes
2015-Mar-02 04:32 12.8
2015-Mar-02 04:21 016 3 gusting 9 12.8
2015-Mar-02 04:02 022 2 gusting 8 12.2
2015-Mar-02 03:51 028 6 gusting 15 12.2
2015-Mar-02 03:32 12.2
2015-Mar-02 03:21 12.2
2015-Mar-02 03:02 344 2 gusting 6 11.7
2015-Mar-02 02:51 331 6 gusting 9 11.7
2015-Mar-02 02:32 037 7 gusting 13 11.7
2015-Mar-02 02:21 010 4 gusting 15 12.2
2015-Mar-02 02:02 033 3 gusting 6 11.7
2015-Mar-02 01:51 036 6 gusting 12 11.7
2015-Mar-02 01:32 355 6 gusting 11 11.7
2015-Mar-02 01:21 199 5 gusting 11 11.7
2015-Mar-02 01:02 330 5 gusting 10 11.1
2015-Mar-02 00:51 286 6 gusting 13 11.1
2015-Mar-02 00:32 11.1
2015-Mar-02 00:21 313 5 gusting 12 11.1
2015-Mar-02 00:02 050 3 gusting 5 10.6
2015-Mar-01 23:51 236 3 gusting 11 10.0
2015-Mar-01 23:32 011 2 gusting 6 9.4
2015-Mar-01 23:21 028 6 gusting 15 8.9
2015-Mar-01 23:02 314 5 gusting 5 8.9
2015-Mar-01 22:51 334 0 gusting 6 8.3
2015-Mar-01 22:32 351 1 gusting 4 7.8
2015-Mar-01 22:21 032 0 gusting 6 7.8
2015-Mar-01 22:02 351 1 gusting 5 7.2
2015-Mar-01 21:51 342 2 gusting 4 7.2
2015-Mar-01 21:32 327 2 gusting 5 7.2
2015-Mar-01 21:21 032 1 gusting 4 7.2
2015-Mar-01 21:02 337 1 gusting 0 7.8
2015-Mar-01 20:51 338 5 gusting 8 7.8
2015-Mar-01 20:32 336 5 gusting 6 8.3
2015-Mar-01 20:21 037 3 gusting 9 8.3
2015-Mar-01 20:02 345 4 gusting 10 8.3
2015-Mar-01 19:51 355 4 gusting 7 8.3
2015-Mar-01 19:32 013 0 gusting 5 8.3
2015-Mar-01 19:21 299 2 gusting 6 8.3
2015-Mar-01 19:02 335 2 gusting 4 8.3
2015-Mar-01 18:51 344 0 gusting 7 8.3
2015-Mar-01 18:32 338 1 gusting 7 8.9
2015-Mar-01 18:21 347 3 gusting 5 8.9
2015-Mar-01 18:02 037 0 gusting 4 8.9
2015-Mar-01 17:51 8.9
2015-Mar-01 17:32 017 1 gusting 6 9.4
2015-Mar-01 17:21 335 1 gusting 7 9.4
2015-Mar-01 17:02 021 0 gusting 4 9.4
2015-Mar-01 16:51 331 0 gusting 5 10.0
2015-Mar-01 16:32 013 1 gusting 6 10.0
2015-Mar-01 16:21 017 2 gusting 7 10.0
2015-Mar-01 16:02 9.4
2015-Mar-01 15:51 306 10.0
2015-Mar-01 15:32 338 0 gusting 6 10.0
2015-Mar-01 15:21 321 0 gusting 6 10.0
2015-Mar-01 15:02 339 2 gusting 5 10.0
2015-Mar-01 14:51 338 1 gusting 4 9.4
2015-Mar-01 14:32 342 0 gusting 3 9.4
2015-Mar-01 14:21 342 0 gusting 2 8.9
2015-Mar-01 14:02 321 0 gusting 4 8.9
2015-Mar-01 13:51 355 0 gusting 4 8.3
2015-Mar-01 13:32 342 2 gusting 6 8.3
2015-Mar-01 13:21 333 2 gusting 6 7.8
2015-Mar-01 13:02 351 0 gusting 7 7.8
2015-Mar-01 12:51 340 5 gusting 9 7.8
2015-Mar-01 12:32 331 5 gusting 7 7.2
2015-Mar-01 12:21 284 6 gusting 11 7.2
2015-Mar-01 12:02 022 5 gusting 11 7.2
2015-Mar-01 11:51 331 6 gusting 8 6.7
2015-Mar-01 11:32 296 2 gusting 6 6.7
2015-Mar-01 11:21 301 4 gusting 8 6.1
2015-Mar-01 11:02 324 4 gusting 6 6.1
2015-Mar-01 10:51 344 0 gusting 0 5.6
2015-Mar-01 10:32 5.6
2015-Mar-01 10:21 328 5 gusting 8 5.6
2015-Mar-01 10:02 345 2 gusting 6 6.1
2015-Mar-01 09:51 331 4 gusting 6 6.1
2015-Mar-01 09:32 298 2 gusting 6 6.1
2015-Mar-01 09:21 028 0 gusting 6 6.1
2015-Mar-01 09:02 336 2 gusting 7 6.1
2015-Mar-01 08:51 030 1 gusting 9 6.1
2015-Mar-01 08:32 019 0 gusting 0 6.1
2015-Mar-01 08:21 341 0 gusting 4 6.1
2015-Mar-01 08:02 333 2 gusting 4 6.1
2015-Mar-01 07:51 346 1 gusting 4 6.7
2015-Mar-01 07:32 355 6.7
2015-Mar-01 07:21 005 6.7
2015-Mar-01 07:02 292 6.7
2015-Mar-01 06:51 292 0 gusting 1 6.7
2015-Mar-01 06:32 032 6.7
2015-Mar-01 06:21 033 6.1
2015-Mar-01 06:02 033 0 gusting 0 6.1
2015-Mar-01 05:51 333 6.1
2015-Mar-01 05:32 288 0 gusting 3 6.1
2015-Mar-01 05:21 288 6.1
2015-Mar-01 05:02 288 6.1
2015-Mar-01 04:51 289 6.1
2015-Mar-01 04:32 355 6.1
2015-Mar-01 04:21 355 6.1
2015-Mar-01 04:02 355 6.1
2015-Mar-01 03:51 322 6.7
2015-Mar-01 03:32 317 6.7
2015-Mar-01 03:21 302 6.7
2015-Mar-01 03:02 340 7.2
2015-Mar-01 02:51 340 7.2
2015-Mar-01 02:32 338 7.2
2015-Mar-01 02:21 341 7.2
2015-Mar-01 02:02 291 7.2
2015-Mar-01 01:51 290 7.2
2015-Mar-01 01:32 7.2
2015-Mar-01 01:21 030 2 gusting 5 7.2
2015-Mar-01 01:02 7.2
2015-Mar-01 00:51 005 7.2
2015-Mar-01 00:32 355 6.7
2015-Mar-01 00:21 280 6.7
2015-Mar-01 00:02 281 6.7
2015-Feb-28 23:51 331 0 gusting 0 6.7
2015-Feb-28 23:32 347 6.1
2015-Feb-28 23:21 323 6.1
2015-Feb-28 23:02 321 6.1
2015-Feb-28 22:51 321 0 gusting 1 6.1
2015-Feb-28 22:32 321 6.1
2015-Feb-28 22:21 321 6.1
2015-Feb-28 22:02 321 6.1
2015-Feb-28 21:51 321 1 gusting 5 6.1
2015-Feb-28 21:32 318 0 gusting 4 6.1
2015-Feb-28 21:21 319 6.1
2015-Feb-28 21:02 318 6.7
2015-Feb-28 20:51 319 6.7
2015-Feb-28 20:32 319 6.7
2015-Feb-28 20:21 318 7.2
2015-Feb-28 20:02 317 1 gusting 3 7.8
2015-Feb-28 19:51 211 0 gusting 1 8.3
2015-Feb-28 19:32 205 8.3
2015-Feb-28 19:21 205 8.3
2015-Feb-28 19:02 205 8.3
2015-Feb-28 18:51 205 8.9
2015-Feb-28 18:32 205 8.9
2015-Feb-28 18:21 205 8.9
2015-Feb-28 18:02 205 8.9
2015-Feb-28 17:51 205 8.9
2015-Feb-28 17:32 205 8.9
2015-Feb-28 17:21 205 8.9
2015-Feb-28 17:02 205 8.9
2015-Feb-28 16:51 205 8.9
2015-Feb-28 16:32 205 8.9
2015-Feb-28 16:21 210 0 gusting 0 8.9
2015-Feb-28 16:02 165 8.9
2015-Feb-28 15:51 167 8.9
2015-Feb-28 15:32 168 8.3
2015-Feb-28 15:21 168 8.3
2015-Feb-28 15:02 160 8.3
2015-Feb-28 14:51 156 8.3
2015-Feb-28 14:32 184 0 gusting 1 8.3
2015-Feb-28 14:21 173 0 gusting 2 8.3
2015-Feb-28 14:02 156 0 gusting 5 8.3
2015-Feb-28 13:51 180 1 gusting 2 8.3
2015-Feb-28 13:32 205 8.3
2015-Feb-28 13:21 206 8.3
2015-Feb-28 13:02 125 0 gusting 2 8.3
2015-Feb-28 12:51 194 0 gusting 3 8.3
2015-Feb-28 12:32 173 0 gusting 4 8.3
2015-Feb-28 12:21 183 8.3
2015-Feb-28 12:02 187 8.3
2015-Feb-28 11:51 198 8.3
2015-Feb-28 11:32 192 8.3
2015-Feb-28 11:21 191 8.3
2015-Feb-28 11:02 183 8.3
2015-Feb-28 10:51 172 8.9
2015-Feb-28 10:32 173 0 gusting 3 8.9
2015-Feb-28 10:21 172 0 gusting 1 8.9
2015-Feb-28 10:02 203 9.4
2015-Feb-28 09:51 203 9.4
2015-Feb-28 09:32 202 9.4
2015-Feb-28 09:21 202 10.0
2015-Feb-28 09:02 203 10.0
2015-Feb-28 08:51 202 10.0
2015-Feb-28 08:32 202 10.6
2015-Feb-28 08:21 202 10.6
2015-Feb-28 08:02 202 11.1
2015-Feb-28 07:51 206 0 gusting 1 11.7
2015-Feb-28 07:32 207 12.2
2015-Feb-28 07:21 213 0 gusting 2 12.2
2015-Feb-28 07:02 213 12.8
2015-Feb-28 06:51 205 12.8
2015-Feb-28 05:32 330 13.9
2015-Feb-28 05:21 005 13.3
2015-Feb-28 05:02 046 0 gusting 6 11.7